Terminal Aerodrome Forecast
Issued by NWS Omaha/Valley, NE

Home | Current Version | Previous Version | Graphics & Text | Print | Product List | Glossary On
Versions: 1 2 3 4 5 6 7 8 9 10 11 12 13 14 15 16 17 18 19 20 21 22 23 24 25 26 27 28 29 30 31 32 33 34 35 36
173
FTUS43 KOAX 200520
TAFOFK
TAF
KOFK 200520Z 2006/2106 18014G21KT P6SM SCT012 OVC250
      TEMPO 2006/2009 BKN012
     FM200900 17012KT 5SM BR OVC008
      TEMPO 2011/2014 OVC004
     FM201700 27014KT P6SM SCT015 BKN100
     FM201900 30016G24KT P6SM SCT250=

USA.gov is the U.S. government's official web portal to all federal, state and local government web resources and services.